createdAt,value
2024-01-06T00:01:51.440Z,4.5
2024-01-06T00:07:28.618Z,4.5
2024-01-06T00:13:04.586Z,4.5
2024-01-06T00:18:14.970Z,4.5
2024-01-06T00:23:47.428Z,4.5
2024-01-06T00:29:31.747Z,4.5
2024-01-06T00:35:19.886Z,4.5
2024-01-06T00:40:36.014Z,4.5
2024-01-06T00:46:19.136Z,4.6
2024-01-06T00:51:40.258Z,4.6
2024-01-06T00:57:14.015Z,4.6
2024-01-06T01:03:08.408Z,4.6
2024-01-06T01:08:29.909Z,4.6
2024-01-06T01:14:11.864Z,4.6
2024-01-06T01:19:25.114Z,4.6
2024-01-06T01:25:00.741Z,4.6
2024-01-06T01:36:29.543Z,4.7
2024-01-06T01:41:58.911Z,4.6
2024-01-06T01:47:38.333Z,4.5
2024-01-06T01:53:14.236Z,4.5
2024-01-06T01:58:24.148Z,4.4
2024-01-06T02:04:00.667Z,4.6
2024-01-06T02:09:56.793Z,5
2024-01-06T02:15:10.226Z,4.6
2024-01-06T02:21:02.593Z,4.6
2024-01-06T02:26:13.251Z,4.4
2024-01-06T02:31:57.282Z,4.4
2024-01-06T02:37:25.399Z,4.1
2024-01-06T02:43:13.208Z,4.3
2024-01-06T02:48:46.247Z,4.3
2024-01-06T02:53:59.700Z,4.3
2024-01-06T02:59:49.935Z,4.3
2024-01-06T03:16:42.026Z,4.3
2024-01-06T03:22:13.422Z,4.4
2024-01-06T03:27:34.904Z,4.4
2024-01-06T03:33:11.629Z,4.4
2024-01-06T03:38:30.168Z,4.3
2024-01-06T03:44:20.067Z,4.2
2024-01-06T03:50:02.023Z,4.3
2024-01-06T04:00:57.744Z,4.2
2024-01-06T04:06:27.603Z,4.3
2024-01-06T04:12:00.941Z,4.1
2024-01-06T04:17:42.321Z,4.1
2024-01-06T04:22:57.865Z,4.1
2024-01-06T04:28:58.407Z,4.2
2024-01-06T04:34:25.575Z,3.6
2024-01-06T04:39:46.494Z,3.7
2024-01-06T04:45:28.084Z,3.7
2024-01-06T04:51:12.944Z,3.8
2024-01-06T04:56:36.606Z,3.8
2024-01-06T05:02:14.140Z,3.7
2024-01-06T05:07:36.885Z,3.8
2024-01-06T05:13:26.806Z,3.6
2024-01-06T05:18:55.564Z,3.7
2024-01-06T05:24:11.887Z,3.6
2024-01-06T05:29:57.578Z,3.6
2024-01-06T05:35:13.400Z,3.6
2024-01-06T05:46:40.235Z,3.9
2024-01-06T05:51:57.552Z,3.9
2024-01-06T05:57:41.112Z,3.8
2024-01-06T06:03:11.996Z,3.4
2024-01-06T06:08:52.037Z,3.4
2024-01-06T06:14:33.123Z,3.4
2024-01-06T06:20:06.460Z,3.4
2024-01-06T06:25:19.288Z,3.4
2024-01-06T06:31:03.328Z,3.4
2024-01-06T06:36:36.353Z,3.4
2024-01-06T06:42:15.012Z,3.4
2024-01-06T06:47:33.841Z,3.4
2024-01-06T06:53:11.006Z,3.2
2024-01-06T06:58:50.726Z,3.3
2024-01-06T07:04:34.517Z,3.2
2024-01-06T07:09:57.004Z,3.3
2024-01-06T07:20:51.683Z,3.3
2024-01-06T07:26:39.077Z,3.1
2024-01-06T07:32:18.539Z,3.1
2024-01-06T07:37:35.533Z,3.1
2024-01-06T07:43:03.698Z,3.3
2024-01-06T07:48:45.166Z,3.7
2024-01-06T07:54:30.483Z,3.6
2024-01-06T07:59:44.249Z,3.7
2024-01-06T08:05:41.808Z,3.6
2024-01-06T08:10:56.627Z,3.7
2024-01-06T08:16:41.820Z,3.4
2024-01-06T08:22:16.179Z,3.4
2024-01-06T08:27:57.816Z,3.4
2024-01-06T08:33:31.205Z,3.6
2024-01-06T08:38:59.885Z,3.8
2024-01-06T08:44:21.461Z,3.7
2024-01-06T08:50:01.470Z,4.1
2024-01-06T09:01:20.320Z,4.2
2024-01-06T09:06:37.277Z,4.5
2024-01-06T09:12:07.573Z,4.5
2024-01-06T09:17:46.353Z,4.6
2024-01-06T09:23:08.550Z,4.6
2024-01-06T09:28:54.652Z,4.6
2024-01-06T09:34:40.189Z,4.7
2024-01-06T09:39:56.430Z,4.8
2024-01-06T09:45:36.598Z,4.9
2024-01-06T10:13:27.095Z,5.2
2024-01-06T10:18:59.914Z,5.2
2024-01-06T10:24:29.694Z,5.2
2024-01-06T10:30:18.877Z,5.1
2024-01-06T10:35:54.277Z,5.1
2024-01-06T10:41:36.499Z,5
2024-01-06T10:47:01.775Z,5
2024-01-06T10:52:47.129Z,5
2024-01-06T10:57:55.768Z,5.2
2024-01-06T11:03:37.124Z,5.3
2024-01-06T11:09:22.720Z,5.3
2024-01-06T11:14:57.191Z,5.3
2024-01-06T11:20:24.904Z,5.5
2024-01-06T11:26:12.671Z,5.5
2024-01-06T11:31:38.333Z,5.7
2024-01-06T11:37:09.319Z,5.6
2024-01-06T11:54:07.084Z,5.5
2024-01-06T13:29:03.278Z,5.6
2024-01-06T13:34:45.448Z,5.5
2024-01-06T14:02:37.598Z,5.2
2024-01-06T14:08:16.167Z,5.2
2024-01-06T14:13:51.066Z,5
2024-01-06T14:25:05.237Z,4.8
2024-01-06T14:30:41.243Z,4.8
2024-01-06T14:36:11.750Z,4.8
2024-01-06T14:41:57.924Z,4.8
2024-01-06T14:47:40.613Z,4.7
2024-01-06T14:53:01.781Z,4.8
2024-01-06T14:58:22.726Z,4.8
2024-01-06T15:04:05.461Z,4.8
2024-01-06T15:37:44.955Z,4.7
2024-01-06T15:54:09.828Z,4.8
2024-01-06T15:59:45.931Z,4.8
2024-01-06T16:11:04.455Z,4.8
2024-01-06T17:23:38.705Z,4.5
2024-01-06T22:25:02.608Z,3.2
